Caney, KS (67333)

11:36 PM CDT on August 20, 2014 (GMT -0500)
HADS LITTLE CANEY RIVER AT COPAN LAKE OK US USARMY-COE | Change Station
CLOSE
Current Station
Personal Weather Station
Location: Copan, OK
Elevation: 708 ft
Nearby Weather Stations

Elev 708 ft 36.89 °N, 95.95 °W | Updated 36 minutes ago

Clear
Clear
83 °F
Feels Like 86 °F
N
9
Wind Variable Wind from South
Gusts 0.0 mph

Today
High -- | Low -- °F
--% Chance of Precip.
Yesterday
High -- | Low -- °F
Precip. -- in
6:44 AM 8:08 PM
Waning Crescent, 17% visible
Pressure 29.90 in
Visibility 10.0 miles
Clouds Clear
Heat Index 86 °F
Dew Point 68 °F
Humidity 62%
Rainfall 0.00 in
Snow Depth Not available.
UV 0 out of 12
Pollen 9.10 out of 12
Air Quality Not available.
Flu Activity Not available.
METAR KIDP 210415Z AUTO 17014G19KT 10SM CLR 27/20 A2990 RMK AO2

More Conditions Fewer Conditions

Pressure 29.90 in
Visibility 10.0 miles
Clouds Clear
Heat Index 86 °F
Dew Point 68 °F
Humidity 62%
Rainfall 0.00 in
Snow Depth Not available.
UV 0 out of 12
Pollen 9.10 out of 12
Air Quality Not available.
Flu Activity Not available.
METAR KIDP 210415Z AUTO 17014G19KT 10SM CLR 27/20 A2990 RMK AO2

More Conditions Fewer Conditions

10-Day Weather Forecast

Almanac

Astronomy

Aug. 20, 2014 Rise Set
Actual Time 6:44 AM CDT 8:08 PM CDT
Civil Twilight 6:17 AM CDT 8:36 PM CDT
Nautical Twilight 5:44 AM CDT 9:08 PM CDT
Astronomical Twilight 5:10 AM CDT 9:42 PM CDT
Moon 2:28 AM CDT (8/20) 4:52 PM CDT (8/20)
Length of Visible Light 14h 18m
Length of Day
13h 24m
Tomorrow will be 2m 8s shorter.
Waning Crescent, 17% of the Moon is Illuminated
Aug 21
Waning Crescent
Aug 25
New
Sep 2
First Quarter
Sep 8
Full
Sep 15
Last Quarter

Today's Extremes

State Highs State Lows

Community

WunderPhotos

Upload Photos

1,745,854 photos uploaded!

Nearby

Snow Depth

Station Depth Elevation
No new snow has been reported.

Earthquake Activity

City Distance Mag. Time & Date
Medford, Oklahoma 106 miles 3.4 5:54 AM CDT
2014-08-16
Medford, Oklahoma 101 miles 2.5 7:09 AM CDT
2014-08-15
Langston, Oklahoma 103 miles 2.9 9:49 PM CDT
2014-08-14
Perry, Oklahoma 80 miles 2.7 6:20 PM CDT
2014-08-14
Minimum magnitude displayed is 2.5.

Coastal Water Temperatures

Place Temperature
No Stations Reporting

Nearby Weather Stations